aviador You're here:

VNKT Decoded Metar

KATHMANDU in NEPAL
Report Time2015-02-01 15:50:00
UTC Time2015-02-01 16:34:48
Flight Rules mvfr MVFR
WindCalm
Visibility6000 m
Phenomena:N/A
Clouds:Few 020 Hf
Expected CloudBase > 1,200 ft AGL from Temp-Dew spread
CeilingNone
Temp08°C (ISA +2)
Dew Point05°C (82% RH)
AAT6.9°C
QNH1022 hPa
Density Alt4,416 ft
Elevation4,386 ft
Report Wrong Elevation
Raw Report
METAR VNKT 011550Z 00000KT 6000 FEW020 08/05 Q1022 NOSIG=

Extra information for VNKT:More info

Metar Taf Metar & Taf Last 4 Metars F.Rules Stats Wind Profile Meteogram Temp Stats Airport Information Weather charts Add Link Nearby VenuesMetar ALERT Operation Metar Decoded Social comments